createdAt,value
2018-02-09T00:01:14.600Z,160.73
2018-02-09T00:03:44.804Z,156.93
2018-02-09T00:06:14.229Z,154.87
2018-02-09T00:08:44.104Z,158.37
2018-02-09T00:11:17.115Z,165.47
2018-02-09T00:13:47.745Z,154.40
2018-02-09T00:16:16.982Z,173.27
2018-02-09T00:18:46.275Z,152.43
2018-02-09T00:21:15.734Z,163.37
2018-02-09T00:23:46.039Z,160.57
2018-02-09T00:26:16.235Z,157.67
2018-02-09T00:28:46.409Z,169.70
2018-02-09T00:31:16.461Z,177.17
2018-02-09T00:33:47.848Z,157.33
2018-02-09T00:36:18.836Z,156.07
2018-02-09T00:38:48.822Z,166.33
2018-02-09T00:41:20.130Z,163.10
2018-02-09T00:43:50.779Z,163.37
2018-02-09T00:46:21.176Z,168.40
2018-02-09T00:48:50.567Z,163.17
2018-02-09T00:51:20.853Z,162.67
2018-02-09T00:53:50.746Z,154.13
2018-02-09T00:56:20.040Z,161.40
2018-02-09T00:58:49.516Z,154.10
2018-02-09T01:01:19.157Z,158.50
2018-02-09T01:03:48.641Z,170.17
2018-02-09T01:06:17.961Z,151.33
2018-02-09T01:08:48.672Z,188.00
2018-02-09T01:11:19.270Z,150.37
2018-02-09T01:13:49.920Z,147.77
2018-02-09T01:16:19.342Z,148.27
2018-02-09T01:18:48.858Z,155.83
2018-02-09T01:21:18.155Z,145.27
2018-02-09T01:23:47.699Z,147.37
2018-02-09T01:26:18.277Z,146.20
2018-02-09T01:28:49.623Z,139.27
2018-02-09T01:31:20.493Z,149.93
2018-02-09T01:33:53.074Z,155.00
2018-02-09T01:36:23.593Z,159.57
2018-02-09T01:38:53.881Z,140.83
2018-02-09T01:41:24.765Z,150.23
2018-02-09T01:43:54.719Z,145.37
2018-02-09T01:46:25.077Z,134.53
2018-02-09T01:48:56.349Z,134.57
2018-02-09T01:51:26.973Z,141.87
2018-02-09T01:53:57.003Z,139.23
2018-02-09T01:56:27.598Z,135.10
2018-02-09T01:58:58.261Z,148.93
2018-02-09T02:01:28.642Z,144.17
2018-02-09T02:03:59.505Z,143.00
2018-02-09T02:06:29.851Z,142.40
2018-02-09T02:09:00.366Z,141.47
2018-02-09T02:11:31.194Z,149.00
2018-02-09T02:14:04.771Z,142.00
2018-02-09T02:16:35.252Z,138.10
2018-02-09T02:19:06.723Z,153.47
2018-02-09T02:21:37.115Z,132.93
2018-02-09T02:24:07.851Z,136.57
2018-02-09T02:26:39.390Z,137.23
2018-02-09T02:29:10.102Z,134.23
2018-02-09T02:31:40.985Z,138.57
2018-02-09T02:34:13.537Z,152.30
2018-02-09T02:36:43.822Z,147.07
2018-02-09T02:39:14.791Z,148.40
2018-02-09T02:41:44.930Z,138.77
2018-02-09T02:44:14.883Z,147.73
2018-02-09T02:46:45.344Z,135.03
2018-02-09T02:49:16.336Z,145.93
2018-02-09T02:51:48.283Z,152.37
2018-02-09T02:54:20.305Z,141.93
2018-02-09T02:56:50.966Z,154.77
2018-02-09T02:59:21.663Z,131.80
2018-02-09T03:01:51.660Z,151.97
2018-02-09T03:04:22.938Z,157.93
2018-02-09T03:06:53.166Z,140.50
2018-02-09T03:09:23.788Z,150.37
2018-02-09T03:11:55.304Z,154.83
2018-02-09T03:14:26.402Z,154.50
2018-02-09T03:16:57.030Z,147.93
2018-02-09T03:19:27.422Z,144.63
2018-02-09T03:21:57.205Z,131.37
2018-02-09T03:24:28.405Z,152.13
2018-02-09T03:26:59.209Z,147.40
2018-02-09T03:29:30.485Z,145.13
2018-02-09T03:32:02.822Z,144.20
2018-02-09T03:34:33.340Z,142.90
2018-02-09T03:37:04.742Z,143.70
2018-02-09T03:39:35.237Z,149.43
2018-02-09T03:42:08.375Z,139.17
2018-02-09T03:44:39.235Z,152.00
2018-02-09T03:47:10.100Z,153.83
2018-02-09T03:49:43.766Z,151.37
2018-02-09T03:52:14.661Z,135.73
2018-02-09T03:54:46.386Z,136.73
2018-02-09T03:57:15.998Z,134.77
2018-02-09T03:59:47.119Z,144.40
2018-02-09T04:02:16.845Z,142.80
2018-02-09T04:04:49.268Z,142.97
2018-02-09T04:07:19.715Z,127.37
2018-02-09T04:09:50.746Z,146.83
2018-02-09T04:12:20.542Z,138.50
2018-02-09T04:14:50.726Z,138.00
2018-02-09T04:17:20.948Z,143.77
2018-02-09T04:19:51.705Z,144.70
2018-02-09T04:22:22.419Z,140.60
2018-02-09T04:24:54.577Z,138.50
2018-02-09T04:27:25.280Z,131.57
2018-02-09T04:29:56.956Z,149.40
2018-02-09T04:32:28.169Z,146.87
2018-02-09T04:34:58.969Z,138.33
2018-02-09T04:37:29.485Z,135.03
2018-02-09T04:39:59.619Z,143.87
2018-02-09T04:42:30.253Z,138.83
2018-02-09T04:45:01.996Z,153.87
2018-02-09T04:47:31.725Z,130.77
2018-02-09T04:50:05.650Z,128.07
2018-02-09T04:52:36.165Z,127.37
2018-02-09T04:55:07.088Z,130.37
2018-02-09T04:57:37.853Z,138.53
2018-02-09T05:00:08.119Z,124.67
2018-02-09T05:02:39.767Z,131.93
2018-02-09T05:05:10.555Z,128.73
2018-02-09T05:07:41.578Z,137.93
2018-02-09T05:10:12.930Z,134.10
2018-02-09T05:12:44.971Z,125.63
2018-02-09T05:15:15.974Z,142.50
2018-02-09T05:17:46.775Z,134.47
2018-02-09T05:20:18.211Z,130.00
2018-02-09T05:22:47.885Z,123.40
2018-02-09T05:25:18.889Z,121.97
2018-02-09T05:27:48.386Z,115.53
2018-02-09T05:30:17.635Z,104.40
2018-02-09T05:32:47.498Z,115.50
2018-02-09T05:35:17.005Z,107.03
2018-02-09T05:37:46.505Z,110.23
2018-02-09T05:40:15.883Z,115.10
2018-02-09T05:42:45.350Z,111.17
2018-02-09T05:45:15.910Z,105.00
2018-02-09T05:47:45.433Z,121.03
2018-02-09T05:50:14.791Z,130.50
2018-02-09T05:52:44.710Z,127.87
2018-02-09T05:55:15.323Z,122.23
2018-02-09T05:57:45.887Z,122.33
2018-02-09T06:00:15.905Z,112.80
2018-02-09T06:02:46.676Z,114.87
2018-02-09T06:05:15.961Z,123.10
2018-02-09T06:07:45.231Z,120.83
2018-02-09T06:10:14.791Z,111.23
2018-02-09T06:12:44.197Z,110.40
2018-02-09T06:15:13.430Z,123.50
2018-02-09T06:17:43.883Z,123.93
2018-02-09T06:20:13.083Z,108.63
2018-02-09T06:22:42.902Z,124.70
2018-02-09T06:25:13.066Z,119.20
2018-02-09T06:27:42.967Z,116.03
2018-02-09T06:30:12.990Z,130.90
2018-02-09T06:32:43.673Z,117.23
2018-02-09T06:35:12.985Z,126.27
2018-02-09T06:37:44.018Z,127.93
2018-02-09T06:40:13.329Z,125.87
2018-02-09T06:42:43.642Z,122.00
2018-02-09T06:45:13.253Z,140.20
2018-02-09T06:47:43.624Z,129.70
2018-02-09T06:50:13.747Z,125.80
2018-02-09T06:52:44.895Z,128.70
2018-02-09T06:55:14.542Z,129.57
2018-02-09T06:57:48.594Z,133.77
2018-02-09T07:00:18.506Z,147.40
2018-02-09T07:02:47.963Z,124.67
2018-02-09T07:05:17.203Z,136.57
2018-02-09T07:07:46.760Z,132.83
2018-02-09T07:10:16.347Z,126.50
2018-02-09T07:12:46.283Z,131.97
2018-02-09T07:15:15.555Z,135.90
2018-02-09T07:17:46.385Z,130.10
2018-02-09T07:20:18.882Z,134.97
2018-02-09T07:22:48.168Z,129.27
2018-02-09T07:25:17.426Z,131.77
2018-02-09T07:27:46.968Z,134.17
2018-02-09T07:30:16.216Z,143.33
2018-02-09T07:32:45.459Z,131.93
2018-02-09T07:35:15.065Z,134.70
2018-02-09T07:37:44.867Z,135.03
2018-02-09T07:40:14.132Z,133.80
2018-02-09T07:42:43.764Z,147.90
2018-02-09T07:45:13.286Z,140.83
2018-02-09T07:47:44.909Z,142.67
2018-02-09T07:50:14.634Z,138.57
2018-02-09T07:52:43.895Z,137.90
2018-02-09T07:55:13.139Z,121.50
2018-02-09T07:57:42.471Z,136.47
2018-02-09T08:00:11.751Z,130.80
2018-02-09T08:02:41.414Z,139.47
2018-02-09T08:05:10.670Z,129.60
2018-02-09T08:07:39.990Z,137.53
2018-02-09T08:10:09.236Z,130.90
2018-02-09T08:12:38.537Z,139.83
2018-02-09T08:15:08.632Z,130.40
2018-02-09T08:17:37.924Z,137.93
2018-02-09T08:20:07.201Z,142.67
2018-02-09T08:22:38.275Z,139.93
2018-02-09T08:25:07.570Z,141.87
2018-02-09T08:27:36.898Z,159.37
2018-02-09T08:30:06.589Z,138.97
2018-02-09T08:32:35.852Z,143.03
2018-02-09T08:35:05.183Z,143.53
2018-02-09T08:37:34.712Z,151.93
2018-02-09T08:40:05.553Z,154.37
2018-02-09T08:42:34.802Z,151.10
2018-02-09T08:45:04.691Z,147.70
2018-02-09T08:47:33.957Z,148.17
2018-02-09T08:50:04.496Z,145.63
2018-02-09T08:52:34.087Z,136.80
2018-02-09T08:55:03.653Z,130.00
2018-02-09T08:57:32.904Z,139.37
2018-02-09T09:00:03.480Z,131.23
2018-02-09T09:02:32.782Z,127.97
2018-02-09T09:05:02.552Z,124.37
2018-02-09T09:07:32.232Z,129.70
2018-02-09T09:10:02.350Z,116.80
2018-02-09T09:12:31.650Z,129.67
2018-02-09T09:15:01.074Z,135.27
2018-02-09T09:17:30.334Z,130.93
2018-02-09T09:19:59.668Z,111.67
2018-02-09T09:22:29.009Z,125.90
2018-02-09T09:24:58.326Z,130.73
2018-02-09T09:27:27.914Z,130.53
2018-02-09T09:29:57.205Z,130.47
2018-02-09T09:32:26.792Z,132.67
2018-02-09T09:34:56.457Z,128.03
2018-02-09T09:37:25.846Z,115.30
2018-02-09T09:39:55.161Z,117.70
2018-02-09T09:42:24.752Z,128.70
2018-02-09T09:44:54.043Z,131.33
2018-02-09T09:47:53.443Z,133.90
2018-02-09T09:50:23.317Z,112.10
2018-02-09T09:52:52.537Z,123.57
2018-02-09T09:55:21.861Z,113.23
2018-02-09T09:57:52.500Z,134.03
2018-02-09T10:00:21.879Z,122.10
2018-02-09T10:02:51.802Z,116.63
2018-02-09T10:05:21.475Z,120.07
2018-02-09T10:07:50.922Z,117.13
2018-02-09T10:10:20.215Z,120.00
2018-02-09T10:12:49.851Z,125.47
2018-02-09T10:15:19.111Z,115.10
2018-02-09T10:17:48.403Z,121.27
2018-02-09T10:20:17.959Z,105.40
2018-02-09T10:22:47.695Z,104.50
2018-02-09T10:25:16.919Z,116.90
2018-02-09T10:27:46.472Z,112.77
2018-02-09T10:30:15.719Z,115.27
2018-02-09T10:32:46.294Z,105.23
2018-02-09T10:35:16.356Z,112.47
2018-02-09T10:37:45.662Z,101.77
2018-02-09T10:40:14.920Z,106.77
2018-02-09T10:42:45.512Z,98.47
2018-02-09T10:45:14.824Z,106.60
2018-02-09T10:47:45.204Z,118.00
2018-02-09T10:50:17.009Z,108.67
2018-02-09T10:52:47.471Z,104.50
2018-02-09T10:55:16.763Z,104.27
2018-02-09T10:57:47.995Z,99.80
2018-02-09T11:00:17.769Z,93.60
2018-02-09T11:02:47.055Z,100.03
2018-02-09T11:05:16.625Z,102.30
2018-02-09T11:07:46.746Z,103.43
2018-02-09T11:10:20.336Z,116.20
2018-02-09T11:12:50.386Z,105.57
2018-02-09T11:15:19.676Z,110.90
2018-02-09T11:17:49.267Z,113.47
2018-02-09T11:20:18.504Z,103.27
2018-02-09T11:22:48.144Z,110.37
2018-02-09T11:25:17.723Z,113.47
2018-02-09T11:27:47.026Z,127.80
2018-02-09T11:30:16.307Z,116.57
2018-02-09T11:32:45.878Z,111.97
2018-02-09T11:35:15.122Z,117.27
2018-02-09T11:37:44.417Z,103.07
2018-02-09T11:40:14.013Z,107.07
2018-02-09T11:42:43.283Z,107.63
2018-02-09T11:45:12.624Z,117.77
2018-02-09T11:47:42.738Z,114.67
2018-02-09T11:50:12.035Z,115.23
2018-02-09T11:52:41.717Z,120.33
2018-02-09T11:55:11.378Z,111.60
2018-02-09T11:57:40.783Z,109.10
2018-02-09T12:00:10.886Z,115.27
2018-02-09T12:02:40.228Z,112.43
2018-02-09T12:05:09.494Z,115.60
2018-02-09T12:07:39.061Z,115.23
2018-02-09T12:10:08.476Z,115.97
2018-02-09T12:12:37.778Z,115.97
2018-02-09T12:15:07.415Z,110.87
2018-02-09T12:17:36.741Z,118.70
2018-02-09T12:20:06.719Z,112.47
2018-02-09T12:22:36.304Z,125.17
2018-02-09T12:27:41.536Z,111.23
2018-02-09T12:30:11.195Z,115.80
2018-02-09T12:32:41.381Z,118.83
2018-02-09T12:35:10.622Z,110.37
2018-02-09T12:37:40.233Z,113.57
2018-02-09T12:40:10.695Z,99.90
2018-02-09T12:42:40.117Z,104.77
2018-02-09T12:45:09.925Z,113.00
2018-02-09T12:47:39.086Z,108.90
2018-02-09T12:50:08.337Z,117.40
2018-02-09T12:52:38.012Z,113.30
2018-02-09T12:55:07.268Z,119.80
2018-02-09T12:57:36.535Z,110.87
2018-02-09T13:00:06.096Z,117.97
2018-02-09T13:05:07.393Z,107.20
2018-02-09T13:07:36.987Z,110.07
2018-02-09T13:10:06.226Z,104.00
2018-02-09T13:12:44.105Z,120.17
2018-02-09T13:15:14.871Z,104.13
2018-02-09T13:17:46.354Z,124.70
2018-02-09T13:20:15.748Z,117.97
2018-02-09T13:24:52.195Z,118.57
2018-02-09T13:27:21.808Z,124.70
2018-02-09T13:29:51.432Z,116.33
2018-02-09T13:32:31.665Z,123.57
2018-02-09T13:35:02.735Z,114.40
2018-02-09T13:37:36.337Z,124.17
2018-02-09T13:40:06.131Z,127.40
2018-02-09T13:42:35.404Z,111.90
2018-02-09T13:45:04.921Z,121.10
2018-02-09T13:47:34.752Z,119.53
2018-02-09T13:50:06.283Z,110.33
2018-02-09T13:52:35.702Z,127.97
2018-02-09T13:55:05.356Z,109.60
2018-02-09T13:57:34.694Z,117.17
2018-02-09T14:00:05.045Z,112.73
2018-02-09T14:02:34.333Z,108.47
2018-02-09T14:05:04.012Z,121.30
2018-02-09T14:07:33.666Z,116.53
2018-02-09T14:10:04.693Z,130.20
2018-02-09T14:12:34.492Z,112.50
2018-02-09T14:15:04.383Z,116.63
2018-02-09T14:17:33.665Z,104.93
2018-02-09T14:20:05.334Z,117.63
2018-02-09T14:22:36.160Z,104.93
2018-02-09T14:25:05.485Z,108.70
2018-02-09T14:27:34.803Z,117.63
2018-02-09T14:30:06.145Z,119.40
2018-02-09T14:32:35.381Z,101.57
2018-02-09T14:35:05.564Z,110.63
2018-02-09T14:37:35.406Z,112.90
2018-02-09T14:40:05.468Z,105.73
2018-02-09T14:42:34.778Z,127.27
2018-02-09T14:45:05.447Z,106.10
2018-02-09T14:47:34.687Z,106.50
2018-02-09T14:50:05.452Z,110.90
2018-02-09T14:52:35.006Z,115.50
2018-02-09T14:55:04.800Z,112.00
2018-02-09T14:57:34.145Z,109.73
2018-02-09T15:00:05.134Z,122.87
2018-02-09T15:02:35.958Z,108.80
2018-02-09T15:05:05.435Z,114.27
2018-02-09T15:07:34.892Z,110.57
2018-02-09T15:10:06.068Z,116.77
2018-02-09T15:12:36.839Z,101.67
2018-02-09T15:15:06.111Z,117.20
2018-02-09T15:17:35.434Z,98.83
2018-02-09T15:20:06.400Z,109.07
2018-02-09T15:22:35.688Z,107.27
2018-02-09T15:25:05.087Z,103.57
2018-02-09T15:27:34.550Z,97.37
2018-02-09T15:30:04.812Z,115.70
2018-02-09T15:32:35.079Z,97.23
2018-02-09T15:35:05.656Z,97.50
2018-02-09T15:37:34.896Z,109.03
2018-02-09T15:40:05.284Z,110.70
2018-02-09T15:42:34.725Z,102.33
2018-02-09T15:45:04.655Z,108.00
2018-02-09T15:47:34.006Z,100.20
2018-02-09T15:50:04.074Z,98.27
2018-02-09T15:52:33.686Z,93.47
2018-02-09T15:55:03.242Z,99.63
2018-02-09T15:57:32.626Z,105.50
2018-02-09T16:00:03.623Z,98.57
2018-02-09T16:02:32.932Z,102.80
2018-02-09T16:05:02.589Z,97.67
2018-02-09T16:07:32.350Z,98.97
2018-02-09T16:10:03.406Z,87.33
2018-02-09T16:12:32.873Z,109.37
2018-02-09T16:15:03.079Z,99.80
2018-02-09T16:17:32.725Z,104.07
2018-02-09T16:20:02.845Z,96.80
2018-02-09T16:22:32.996Z,100.10
2018-02-09T16:25:02.446Z,91.97
2018-02-09T16:27:31.766Z,94.70
2018-02-09T16:30:01.604Z,105.80
2018-02-09T16:32:30.951Z,100.23
2018-02-09T16:35:00.791Z,104.10
2018-02-09T16:37:30.482Z,100.57
2018-02-09T16:39:59.766Z,110.23
2018-02-09T16:42:29.040Z,117.20
2018-02-09T16:44:58.321Z,110.33
2018-02-09T16:47:27.583Z,105.60
2018-02-09T16:49:57.188Z,116.07
2018-02-09T16:52:26.497Z,121.33
2018-02-09T16:54:55.843Z,122.80
2018-02-09T16:57:25.183Z,120.07
2018-02-09T16:59:54.523Z,118.30
2018-02-09T17:02:23.753Z,110.37
2018-02-09T17:04:54.330Z,118.87
2018-02-09T17:07:23.739Z,100.33
2018-02-09T17:10:55.867Z,124.03
2018-02-09T17:13:25.171Z,111.37
2018-02-09T17:15:54.488Z,116.30
2018-02-09T17:18:24.067Z,122.97
2018-02-09T17:20:53.327Z,121.30
2018-02-09T17:23:22.627Z,117.50
2018-02-09T17:25:53.251Z,114.70
2018-02-09T17:28:22.557Z,127.93
2018-02-09T17:30:51.978Z,125.67
2018-02-09T17:33:21.549Z,135.53
2018-02-09T17:35:51.120Z,126.97
2018-02-09T17:38:20.388Z,122.83
2018-02-09T17:40:49.627Z,115.37
2018-02-09T17:43:18.883Z,137.90
2018-02-09T17:45:48.162Z,129.03
2018-02-09T17:48:17.897Z,121.07
2018-02-09T17:50:47.222Z,122.43
2018-02-09T17:53:16.594Z,121.37
2018-02-09T17:55:46.389Z,116.73
2018-02-09T17:58:15.735Z,110.77
2018-02-09T18:00:46.451Z,120.57
2018-02-09T18:03:15.902Z,114.07
2018-02-09T18:05:45.172Z,108.40
2018-02-09T18:08:14.513Z,111.17
2018-02-09T18:10:44.405Z,124.70
2018-02-09T18:13:13.735Z,108.07
2018-02-09T18:15:43.282Z,103.93
2018-02-09T18:18:12.851Z,108.97
2018-02-09T18:20:42.207Z,116.73
2018-02-09T18:23:11.483Z,108.17
2018-02-09T18:25:40.842Z,115.00
2018-02-09T18:28:10.074Z,100.27
2018-02-09T18:30:39.362Z,111.07
2018-02-09T18:33:09.646Z,113.53
2018-02-09T18:35:38.866Z,106.13
2018-02-09T18:38:08.108Z,118.20
2018-02-09T18:40:37.665Z,104.90
2018-02-09T18:43:07.596Z,111.13
2018-02-09T18:45:36.849Z,100.73
2018-02-09T18:48:06.439Z,106.13
2018-02-09T18:50:35.752Z,104.83
2018-02-09T18:53:05.288Z,107.73
2018-02-09T18:55:34.494Z,97.53
2018-02-09T18:58:05.442Z,108.80
2018-02-09T19:00:34.650Z,94.00
2018-02-09T19:03:04.446Z,109.83
2018-02-09T19:05:33.737Z,103.97
2018-02-09T19:08:04.346Z,110.63
2018-02-09T19:10:33.975Z,121.97
2018-02-09T19:13:03.727Z,126.33
2018-02-09T19:15:32.978Z,122.90
2018-02-09T19:18:03.738Z,114.60
2018-02-09T19:20:33.003Z,124.17
2018-02-09T19:23:03.432Z,119.00
2018-02-09T19:25:32.981Z,115.20
2018-02-09T19:28:03.498Z,121.27
2018-02-09T19:30:32.786Z,109.13
2018-02-09T19:33:02.577Z,122.60
2018-02-09T19:35:31.882Z,116.87
2018-02-09T19:38:02.600Z,129.83
2018-02-09T19:40:32.128Z,136.70
2018-02-09T19:43:02.936Z,137.23
2018-02-09T19:45:32.178Z,132.83
2018-02-09T19:48:01.692Z,138.63
2018-02-09T19:50:30.936Z,132.57
2018-02-09T19:53:00.511Z,129.83
2018-02-09T19:55:30.068Z,124.90
2018-02-09T19:57:59.368Z,136.70
2018-02-09T20:00:28.936Z,136.40
2018-02-09T20:02:59.486Z,107.13
2018-02-09T20:05:28.713Z,112.67
2018-02-09T20:07:58.259Z,107.77
2018-02-09T20:10:27.562Z,120.57
2018-02-09T20:12:56.858Z,116.07
2018-02-09T20:15:26.462Z,105.53
2018-02-09T20:17:56.416Z,110.40
2018-02-09T20:20:25.620Z,116.23
2018-02-09T20:22:55.179Z,103.27
2018-02-09T20:25:24.385Z,98.23
2018-02-09T20:27:54.167Z,114.30
2018-02-09T20:30:23.703Z,112.17
2018-02-09T20:32:52.904Z,109.87
2018-02-09T20:35:22.106Z,104.37
2018-02-09T20:37:51.680Z,104.93
2018-02-09T20:40:20.956Z,109.40
2018-02-09T20:42:51.600Z,106.20
2018-02-09T20:45:21.295Z,112.50
2018-02-09T20:47:50.801Z,99.43
2018-02-09T20:50:20.035Z,101.37
2018-02-09T20:52:50.858Z,106.97
2018-02-09T20:55:20.069Z,99.00
2018-02-09T20:57:49.349Z,105.67
2018-02-09T21:00:18.927Z,96.50
2018-02-09T21:02:48.385Z,104.10
2018-02-09T21:05:17.699Z,98.33
2018-02-09T21:07:47.496Z,112.17
2018-02-09T21:10:16.745Z,127.93
2018-02-09T21:12:45.970Z,118.70
2018-02-09T21:15:15.486Z,117.10
2018-02-09T21:17:44.813Z,120.03
2018-02-09T21:20:14.015Z,116.87
2018-02-09T21:22:43.622Z,115.43
2018-02-09T21:25:12.900Z,124.00
2018-02-09T21:27:42.160Z,145.83
2018-02-09T21:30:11.723Z,133.97
2018-02-09T21:32:41.108Z,139.27
2018-02-09T21:35:10.769Z,113.47
2018-02-09T21:37:40.509Z,132.83
2018-02-09T21:40:09.735Z,105.30
2018-02-09T21:42:39.014Z,106.33
2018-02-09T21:45:08.550Z,111.83
2018-02-09T21:47:37.734Z,113.27
2018-02-09T21:50:07.003Z,106.97
2018-02-09T21:52:36.689Z,103.60
2018-02-09T21:55:06.516Z,98.17
2018-02-09T21:57:35.775Z,113.70
2018-02-09T22:00:06.619Z,117.07
2018-02-09T22:02:35.874Z,95.13
2018-02-09T22:05:05.589Z,103.87
2018-02-09T22:07:34.845Z,107.33
2018-02-09T22:10:05.346Z,115.83
2018-02-09T22:12:34.571Z,110.80
2018-02-09T22:15:04.117Z,112.93
2018-02-09T22:17:33.634Z,103.30
2018-02-09T22:20:04.322Z,108.97
2018-02-09T22:22:33.542Z,114.23
2018-02-09T22:25:04.141Z,109.10
2018-02-09T22:27:33.344Z,115.70
2018-02-09T22:30:04.283Z,109.93
2018-02-09T22:32:33.570Z,107.60
2018-02-09T22:35:03.259Z,116.27
2018-02-09T22:37:32.794Z,98.87
2018-02-09T22:40:03.642Z,102.83
2018-02-09T22:42:32.867Z,109.20
2018-02-09T22:45:02.497Z,122.57
2018-02-09T22:47:31.741Z,103.43
2018-02-09T22:50:01.071Z,119.57
2018-02-09T22:52:30.825Z,115.00
2018-02-09T22:55:00.061Z,114.57
2018-02-09T22:57:29.326Z,113.90
2018-02-09T22:59:58.899Z,114.13
2018-02-09T23:02:28.131Z,125.87
2018-02-09T23:04:58.335Z,128.20
2018-02-09T23:07:27.918Z,116.83
2018-02-09T23:09:57.221Z,120.47
2018-02-09T23:12:26.468Z,111.10
2018-02-09T23:14:56.018Z,116.37
2018-02-09T23:17:25.312Z,108.37
2018-02-09T23:19:54.619Z,122.03
2018-02-09T23:22:24.385Z,105.33
2018-02-09T23:24:54.090Z,118.93
2018-02-09T23:27:23.443Z,117.73
2018-02-09T23:29:53.478Z,117.80
2018-02-09T23:32:22.911Z,114.50
2018-02-09T23:34:52.124Z,117.20
2018-02-09T23:37:21.730Z,127.77
2018-02-09T23:39:51.075Z,123.70
2018-02-09T23:42:20.324Z,130.80
2018-02-09T23:44:50.147Z,127.33
2018-02-09T23:47:19.491Z,120.33
2018-02-09T23:49:48.824Z,126.00
2018-02-09T23:52:18.402Z,120.37
2018-02-09T23:54:48.327Z,128.60
2018-02-09T23:57:17.595Z,122.70
2018-02-09T23:59:47.443Z,120.70
